sensor_id;sensor_type;location;lat;lon;timestamp;temperature;humidity
19363;DHT22;9817;50.80926400;5.16316200;2022-12-29T00:01:17;12.20;99.90
19363;DHT22;9817;50.80926400;5.16316200;2022-12-29T00:03:46;12.10;99.90
19363;DHT22;9817;50.80926400;5.16316200;2022-12-29T00:06:12;12.20;99.90
19363;DHT22;9817;50.80926400;5.16316200;2022-12-29T00:08:37;12.30;99.90
19363;DHT22;9817;50.80926400;5.16316200;2022-12-29T00:11:11;12.30;99.90
19363;DHT22;9817;50.80926400;5.16316200;2022-12-29T00:13:37;12.30;99.90
19363;DHT22;9817;50.80926400;5.16316200;2022-12-29T00:16:21;12.30;99.90
19363;DHT22;9817;50.80926400;5.16316200;2022-12-29T00:18:47;12.30;99.90
19363;DHT22;9817;50.80926400;5.16316200;2022-12-29T00:21:14;12.40;99.90
19363;DHT22;9817;50.80926400;5.16316200;2022-12-29T00:23:59;12.50;99.90
19363;DHT22;9817;50.80926400;5.16316200;2022-12-29T00:26:43;12.40;99.90
19363;DHT22;9817;50.80926400;5.16316200;2022-12-29T00:29:27;12.40;99.90
19363;DHT22;9817;50.80926400;5.16316200;2022-12-29T00:32:11;12.30;99.90
19363;DHT22;9817;50.80926400;5.16316200;2022-12-29T00:34:56;12.40;99.90
19363;DHT22;9817;50.80926400;5.16316200;2022-12-29T00:37:34;12.40;99.90
19363;DHT22;9817;50.80926400;5.16316200;2022-12-29T00:40:18;12.40;99.90
19363;DHT22;9817;50.80926400;5.16316200;2022-12-29T00:43:02;12.30;99.90
19363;DHT22;9817;50.80926400;5.16316200;2022-12-29T00:45:46;12.20;99.90
19363;DHT22;9817;50.80926400;5.16316200;2022-12-29T00:48:12;12.30;99.90
19363;DHT22;9817;50.80926400;5.16316200;2022-12-29T00:50:38;12.30;99.90
19363;DHT22;9817;50.80926400;5.16316200;2022-12-29T00:53:03;12.40;99.90
19363;DHT22;9817;50.80926400;5.16316200;2022-12-29T00:55:29;12.30;99.90
19363;DHT22;9817;50.80926400;5.16316200;2022-12-29T00:57:54;12.30;99.90
19363;DHT22;9817;50.80926400;5.16316200;2022-12-29T01:00:20;12.20;99.90
19363;DHT22;9817;50.80926400;5.16316200;2022-12-29T01:02:45;12.30;99.90
19363;DHT22;9817;50.80926400;5.16316200;2022-12-29T01:05:11;12.20;99.90
19363;DHT22;9817;50.80926400;5.16316200;2022-12-29T01:07:36;12.30;99.90
19363;DHT22;9817;50.80926400;5.16316200;2022-12-29T01:10:02;12.20;99.90
19363;DHT22;9817;50.80926400;5.16316200;2022-12-29T01:12:37;12.20;99.90
19363;DHT22;9817;50.80926400;5.16316200;2022-12-29T01:15:07;12.20;99.90
19363;DHT22;9817;50.80926400;5.16316200;2022-12-29T01:17:33;12.20;99.90
19363;DHT22;9817;50.80926400;5.16316200;2022-12-29T01:19:58;12.20;99.90
19363;DHT22;9817;50.80926400;5.16316200;2022-12-29T01:22:24;12.30;99.90
19363;DHT22;9817;50.80926400;5.16316200;2022-12-29T01:24:49;12.30;99.90
19363;DHT22;9817;50.80926400;5.16316200;2022-12-29T01:27:15;12.40;99.90
19363;DHT22;9817;50.80926400;5.16316200;2022-12-29T01:29:41;12.20;99.90
19363;DHT22;9817;50.80926400;5.16316200;2022-12-29T01:32:06;12.30;99.90
19363;DHT22;9817;50.80926400;5.16316200;2022-12-29T01:34:32;12.50;99.90
19363;DHT22;9817;50.80926400;5.16316200;2022-12-29T01:36:58;12.50;99.90
19363;DHT22;9817;50.80926400;5.16316200;2022-12-29T01:39:23;12.50;99.90
19363;DHT22;9817;50.80926400;5.16316200;2022-12-29T01:41:49;12.50;99.90
19363;DHT22;9817;50.80926400;5.16316200;2022-12-29T01:44:47;12.40;99.90
19363;DHT22;9817;50.80926400;5.16316200;2022-12-29T01:48:08;12.60;99.90
19363;DHT22;9817;50.80926400;5.16316200;2022-12-29T01:50:45;12.50;99.90
19363;DHT22;9817;50.80926400;5.16316200;2022-12-29T01:53:19;12.50;99.90
19363;DHT22;9817;50.80926400;5.16316200;2022-12-29T01:55:50;12.40;99.90
19363;DHT22;9817;50.80926400;5.16316200;2022-12-29T01:58:20;12.30;99.90
19363;DHT22;9817;50.80926400;5.16316200;2022-12-29T02:00:46;12.20;99.90
19363;DHT22;9817;50.80926400;5.16316200;2022-12-29T02:03:12;12.20;99.90
19363;DHT22;9817;50.80926400;5.16316200;2022-12-29T02:05:58;12.20;99.90
19363;DHT22;9817;50.80926400;5.16316200;2022-12-29T02:08:26;12.20;99.90
19363;DHT22;9817;50.80926400;5.16316200;2022-12-29T02:10:53;12.30;99.90
19363;DHT22;9817;50.80926400;5.16316200;2022-12-29T02:13:19;12.30;99.90
19363;DHT22;9817;50.80926400;5.16316200;2022-12-29T02:19:18;12.30;99.90
19363;DHT22;9817;50.80926400;5.16316200;2022-12-29T02:27:58;11.90;99.90
19363;DHT22;9817;50.80926400;5.16316200;2022-12-29T02:49:30;12.30;99.90
19363;DHT22;9817;50.80926400;5.16316200;2022-12-29T02:52:12;12.20;99.90
19363;DHT22;9817;50.80926400;5.16316200;2022-12-29T02:54:40;12.20;99.90
19363;DHT22;9817;50.80926400;5.16316200;2022-12-29T02:57:32;12.30;99.90
19363;DHT22;9817;50.80926400;5.16316200;2022-12-29T03:00:05;12.30;99.90
19363;DHT22;9817;50.80926400;5.16316200;2022-12-29T03:03:05;12.30;99.90
19363;DHT22;9817;50.80926400;5.16316200;2022-12-29T03:11:11;12.20;99.90
19363;DHT22;9817;50.80926400;5.16316200;2022-12-29T03:17:57;12.20;99.90
19363;DHT22;9817;50.80926400;5.16316200;2022-12-29T03:20:25;12.10;99.90
19363;DHT22;9817;50.80926400;5.16316200;2022-12-29T03:22:53;12.20;99.90
19363;DHT22;9817;50.80926400;5.16316200;2022-12-29T03:25:33;12.20;99.90
19363;DHT22;9817;50.80926400;5.16316200;2022-12-29T03:28:08;12.10;99.90
19363;DHT22;9817;50.80926400;5.16316200;2022-12-29T03:30:35;12.20;99.90
19363;DHT22;9817;50.80926400;5.16316200;2022-12-29T03:33:05;12.30;99.90
19363;DHT22;9817;50.80926400;5.16316200;2022-12-29T03:35:35;12.20;99.90
19363;DHT22;9817;50.80926400;5.16316200;2022-12-29T03:38:14;12.20;99.90
19363;DHT22;9817;50.80926400;5.16316200;2022-12-29T03:40:43;12.30;99.90
19363;DHT22;9817;50.80926400;5.16316200;2022-12-29T03:43:10;12.30;99.90
19363;DHT22;9817;50.80926400;5.16316200;2022-12-29T03:45:37;12.30;99.90
19363;DHT22;9817;50.80926400;5.16316200;2022-12-29T03:48:03;12.40;99.90
19363;DHT22;9817;50.80926400;5.16316200;2022-12-29T03:50:29;12.50;99.90
19363;DHT22;9817;50.80926400;5.16316200;2022-12-29T03:52:54;12.50;99.90
19363;DHT22;9817;50.80926400;5.16316200;2022-12-29T03:55:20;12.50;99.90
19363;DHT22;9817;50.80926400;5.16316200;2022-12-29T03:57:46;12.50;99.90
19363;DHT22;9817;50.80926400;5.16316200;2022-12-29T04:00:12;12.50;99.90
19363;DHT22;9817;50.80926400;5.16316200;2022-12-29T04:02:38;12.40;99.90
19363;DHT22;9817;50.80926400;5.16316200;2022-12-29T04:05:04;12.40;99.90
19363;DHT22;9817;50.80926400;5.16316200;2022-12-29T04:07:30;12.30;99.90
19363;DHT22;9817;50.80926400;5.16316200;2022-12-29T04:09:56;12.30;99.90
19363;DHT22;9817;50.80926400;5.16316200;2022-12-29T04:12:21;12.30;99.90
19363;DHT22;9817;50.80926400;5.16316200;2022-12-29T04:14:47;12.20;99.90
19363;DHT22;9817;50.80926400;5.16316200;2022-12-29T04:17:13;12.30;99.90
19363;DHT22;9817;50.80926400;5.16316200;2022-12-29T04:19:38;12.40;99.90
19363;DHT22;9817;50.80926400;5.16316200;2022-12-29T04:22:04;12.40;99.90
19363;DHT22;9817;50.80926400;5.16316200;2022-12-29T04:24:29;12.30;99.90
19363;DHT22;9817;50.80926400;5.16316200;2022-12-29T04:26:55;12.30;99.90
19363;DHT22;9817;50.80926400;5.16316200;2022-12-29T04:29:21;12.10;99.90
19363;DHT22;9817;50.80926400;5.16316200;2022-12-29T04:31:47;12.00;99.90
19363;DHT22;9817;50.80926400;5.16316200;2022-12-29T04:34:12;11.90;99.90
19363;DHT22;9817;50.80926400;5.16316200;2022-12-29T04:36:38;11.90;99.90
19363;DHT22;9817;50.80926400;5.16316200;2022-12-29T04:39:05;11.90;99.90
19363;DHT22;9817;50.80926400;5.16316200;2022-12-29T04:41:31;11.90;99.90
19363;DHT22;9817;50.80926400;5.16316200;2022-12-29T04:43:56;12.00;99.90
19363;DHT22;9817;50.80926400;5.16316200;2022-12-29T04:46:22;12.00;99.90
19363;DHT22;9817;50.80926400;5.16316200;2022-12-29T04:48:48;12.20;99.90
19363;DHT22;9817;50.80926400;5.16316200;2022-12-29T04:51:13;12.10;99.90
19363;DHT22;9817;50.80926400;5.16316200;2022-12-29T04:53:39;12.20;99.90
19363;DHT22;9817;50.80926400;5.16316200;2022-12-29T04:56:05;12.10;99.90
19363;DHT22;9817;50.80926400;5.16316200;2022-12-29T04:58:31;12.10;99.90
19363;DHT22;9817;50.80926400;5.16316200;2022-12-29T05:00:56;12.10;99.90
19363;DHT22;9817;50.80926400;5.16316200;2022-12-29T05:03:22;12.00;99.90
19363;DHT22;9817;50.80926400;5.16316200;2022-12-29T05:05:47;12.10;99.90
19363;DHT22;9817;50.80926400;5.16316200;2022-12-29T05:08:13;12.00;99.90
19363;DHT22;9817;50.80926400;5.16316200;2022-12-29T05:10:38;12.10;99.90
19363;DHT22;9817;50.80926400;5.16316200;2022-12-29T05:13:04;12.10;99.90
19363;DHT22;9817;50.80926400;5.16316200;2022-12-29T05:15:30;12.10;99.90
19363;DHT22;9817;50.80926400;5.16316200;2022-12-29T05:17:55;12.10;99.90
19363;DHT22;9817;50.80926400;5.16316200;2022-12-29T05:20:21;12.00;99.90
19363;DHT22;9817;50.80926400;5.16316200;2022-12-29T05:22:47;12.00;99.90
19363;DHT22;9817;50.80926400;5.16316200;2022-12-29T05:25:12;12.00;99.90
19363;DHT22;9817;50.80926400;5.16316200;2022-12-29T05:27:38;11.90;99.90
19363;DHT22;9817;50.80926400;5.16316200;2022-12-29T05:30:04;12.10;99.90
19363;DHT22;9817;50.80926400;5.16316200;2022-12-29T05:32:30;12.10;99.90
19363;DHT22;9817;50.80926400;5.16316200;2022-12-29T05:34:55;12.00;99.90
19363;DHT22;9817;50.80926400;5.16316200;2022-12-29T05:37:21;12.00;99.90
19363;DHT22;9817;50.80926400;5.16316200;2022-12-29T05:39:47;12.10;99.90
19363;DHT22;9817;50.80926400;5.16316200;2022-12-29T05:42:12;12.10;99.90
19363;DHT22;9817;50.80926400;5.16316200;2022-12-29T05:44:38;12.10;99.90
19363;DHT22;9817;50.80926400;5.16316200;2022-12-29T05:47:03;12.10;99.90
19363;DHT22;9817;50.80926400;5.16316200;2022-12-29T05:49:29;12.00;99.90
19363;DHT22;9817;50.80926400;5.16316200;2022-12-29T05:51:55;12.10;99.90
19363;DHT22;9817;50.80926400;5.16316200;2022-12-29T05:54:20;12.10;99.90
19363;DHT22;9817;50.80926400;5.16316200;2022-12-29T05:56:46;12.00;99.90
19363;DHT22;9817;50.80926400;5.16316200;2022-12-29T05:59:11;12.00;99.90
19363;DHT22;9817;50.80926400;5.16316200;2022-12-29T06:01:37;12.00;99.90
19363;DHT22;9817;50.80926400;5.16316200;2022-12-29T06:04:03;11.90;99.90
19363;DHT22;9817;50.80926400;5.16316200;2022-12-29T06:06:28;12.00;99.90
19363;DHT22;9817;50.80926400;5.16316200;2022-12-29T06:08:54;11.80;99.90
19363;DHT22;9817;50.80926400;5.16316200;2022-12-29T06:11:19;11.90;99.90
19363;DHT22;9817;50.80926400;5.16316200;2022-12-29T06:13:45;11.80;99.90
19363;DHT22;9817;50.80926400;5.16316200;2022-12-29T06:16:11;11.90;99.90
19363;DHT22;9817;50.80926400;5.16316200;2022-12-29T06:18:36;11.90;99.90
19363;DHT22;9817;50.80926400;5.16316200;2022-12-29T06:21:03;11.80;99.90
19363;DHT22;9817;50.80926400;5.16316200;2022-12-29T06:23:29;11.80;99.90
19363;DHT22;9817;50.80926400;5.16316200;2022-12-29T06:25:54;11.80;99.90
19363;DHT22;9817;50.80926400;5.16316200;2022-12-29T06:28:20;11.80;99.90
19363;DHT22;9817;50.80926400;5.16316200;2022-12-29T06:30:46;11.70;99.90
19363;DHT22;9817;50.80926400;5.16316200;2022-12-29T06:33:13;11.60;99.90
19363;DHT22;9817;50.80926400;5.16316200;2022-12-29T06:35:38;11.60;99.90
19363;DHT22;9817;50.80926400;5.16316200;2022-12-29T06:38:04;11.80;99.90
19363;DHT22;9817;50.80926400;5.16316200;2022-12-29T06:40:31;11.60;99.90
19363;DHT22;9817;50.80926400;5.16316200;2022-12-29T06:42:56;11.60;99.90
19363;DHT22;9817;50.80926400;5.16316200;2022-12-29T06:45:22;11.60;99.90
19363;DHT22;9817;50.80926400;5.16316200;2022-12-29T06:47:48;11.70;99.90
19363;DHT22;9817;50.80926400;5.16316200;2022-12-29T06:50:13;11.70;99.90
19363;DHT22;9817;50.80926400;5.16316200;2022-12-29T06:52:39;11.80;99.90
19363;DHT22;9817;50.80926400;5.16316200;2022-12-29T06:55:05;11.80;99.90
19363;DHT22;9817;50.80926400;5.16316200;2022-12-29T06:57:30;11.70;99.90
19363;DHT22;9817;50.80926400;5.16316200;2022-12-29T06:59:56;11.80;99.90
19363;DHT22;9817;50.80926400;5.16316200;2022-12-29T07:02:22;11.80;99.90
19363;DHT22;9817;50.80926400;5.16316200;2022-12-29T07:04:53;11.80;99.90
19363;DHT22;9817;50.80926400;5.16316200;2022-12-29T07:07:19;11.80;99.90
19363;DHT22;9817;50.80926400;5.16316200;2022-12-29T07:09:46;11.80;99.90
19363;DHT22;9817;50.80926400;5.16316200;2022-12-29T07:12:12;11.80;99.90
19363;DHT22;9817;50.80926400;5.16316200;2022-12-29T07:14:37;11.80;99.90
19363;DHT22;9817;50.80926400;5.16316200;2022-12-29T07:17:03;11.80;99.90
19363;DHT22;9817;50.80926400;5.16316200;2022-12-29T07:19:32;11.80;99.90
19363;DHT22;9817;50.80926400;5.16316200;2022-12-29T07:21:57;11.70;99.90
19363;DHT22;9817;50.80926400;5.16316200;2022-12-29T07:24:23;11.60;99.90
19363;DHT22;9817;50.80926400;5.16316200;2022-12-29T07:26:51;11.60;99.90
19363;DHT22;9817;50.80926400;5.16316200;2022-12-29T07:29:16;11.50;99.90
19363;DHT22;9817;50.80926400;5.16316200;2022-12-29T07:31:42;11.50;99.90
19363;DHT22;9817;50.80926400;5.16316200;2022-12-29T07:34:08;11.50;99.90
19363;DHT22;9817;50.80926400;5.16316200;2022-12-29T07:36:34;11.40;99.90
19363;DHT22;9817;50.80926400;5.16316200;2022-12-29T07:39:00;11.30;99.90
19363;DHT22;9817;50.80926400;5.16316200;2022-12-29T07:41:25;11.20;99.90
19363;DHT22;9817;50.80926400;5.16316200;2022-12-29T07:43:51;11.30;99.90
19363;DHT22;9817;50.80926400;5.16316200;2022-12-29T07:46:17;11.20;99.90
19363;DHT22;9817;50.80926400;5.16316200;2022-12-29T07:48:42;11.10;99.90
19363;DHT22;9817;50.80926400;5.16316200;2022-12-29T07:51:08;11.10;99.90
19363;DHT22;9817;50.80926400;5.16316200;2022-12-29T07:53:33;11.10;99.90
19363;DHT22;9817;50.80926400;5.16316200;2022-12-29T07:55:59;11.10;99.90
19363;DHT22;9817;50.80926400;5.16316200;2022-12-29T07:58:24;11.20;99.90
19363;DHT22;9817;50.80926400;5.16316200;2022-12-29T08:00:56;11.30;99.90
19363;DHT22;9817;50.80926400;5.16316200;2022-12-29T08:03:23;11.20;99.90
19363;DHT22;9817;50.80926400;5.16316200;2022-12-29T08:05:49;11.30;99.90
19363;DHT22;9817;50.80926400;5.16316200;2022-12-29T08:08:15;11.30;99.90
19363;DHT22;9817;50.80926400;5.16316200;2022-12-29T08:10:40;11.30;99.90
19363;DHT22;9817;50.80926400;5.16316200;2022-12-29T08:13:06;11.40;99.90
19363;DHT22;9817;50.80926400;5.16316200;2022-12-29T08:15:32;11.30;99.90
19363;DHT22;9817;50.80926400;5.16316200;2022-12-29T08:17:57;11.40;99.90
19363;DHT22;9817;50.80926400;5.16316200;2022-12-29T08:20:23;11.20;99.90
19363;DHT22;9817;50.80926400;5.16316200;2022-12-29T08:22:48;11.30;99.90
19363;DHT22;9817;50.80926400;5.16316200;2022-12-29T08:25:14;11.30;99.90
19363;DHT22;9817;50.80926400;5.16316200;2022-12-29T08:27:40;11.30;99.90
19363;DHT22;9817;50.80926400;5.16316200;2022-12-29T08:30:06;11.40;99.90
19363;DHT22;9817;50.80926400;5.16316200;2022-12-29T08:32:32;11.60;99.90
19363;DHT22;9817;50.80926400;5.16316200;2022-12-29T08:34:57;11.50;99.90
19363;DHT22;9817;50.80926400;5.16316200;2022-12-29T08:37:23;11.40;99.90
19363;DHT22;9817;50.80926400;5.16316200;2022-12-29T08:39:48;11.40;99.90
19363;DHT22;9817;50.80926400;5.16316200;2022-12-29T08:42:14;11.50;99.90
19363;DHT22;9817;50.80926400;5.16316200;2022-12-29T08:44:40;11.70;99.90
19363;DHT22;9817;50.80926400;5.16316200;2022-12-29T08:47:05;11.60;99.90
19363;DHT22;9817;50.80926400;5.16316200;2022-12-29T08:49:31;11.60;99.90
19363;DHT22;9817;50.80926400;5.16316200;2022-12-29T08:51:58;11.70;99.90
19363;DHT22;9817;50.80926400;5.16316200;2022-12-29T08:54:24;11.60;99.90
19363;DHT22;9817;50.80926400;5.16316200;2022-12-29T08:56:50;11.50;99.90
19363;DHT22;9817;50.80926400;5.16316200;2022-12-29T08:59:15;11.50;99.90
19363;DHT22;9817;50.80926400;5.16316200;2022-12-29T09:01:41;11.50;99.90
19363;DHT22;9817;50.80926400;5.16316200;2022-12-29T09:04:07;11.50;99.90
19363;DHT22;9817;50.80926400;5.16316200;2022-12-29T09:06:33;11.30;99.90
19363;DHT22;9817;50.80926400;5.16316200;2022-12-29T09:08:59;11.30;99.90
19363;DHT22;9817;50.80926400;5.16316200;2022-12-29T09:11:25;11.40;99.90
19363;DHT22;9817;50.80926400;5.16316200;2022-12-29T09:13:51;11.40;99.90
19363;DHT22;9817;50.80926400;5.16316200;2022-12-29T09:16:18;11.50;99.90
19363;DHT22;9817;50.80926400;5.16316200;2022-12-29T09:18:45;11.40;99.90
19363;DHT22;9817;50.80926400;5.16316200;2022-12-29T09:21:11;11.40;99.90
19363;DHT22;9817;50.80926400;5.16316200;2022-12-29T09:23:36;11.30;99.90
19363;DHT22;9817;50.80926400;5.16316200;2022-12-29T09:26:03;11.30;99.90
19363;DHT22;9817;50.80926400;5.16316200;2022-12-29T09:28:30;11.30;99.90
19363;DHT22;9817;50.80926400;5.16316200;2022-12-29T09:30:56;11.40;99.90
19363;DHT22;9817;50.80926400;5.16316200;2022-12-29T09:33:22;11.40;99.90
19363;DHT22;9817;50.80926400;5.16316200;2022-12-29T09:35:54;11.20;99.90
19363;DHT22;9817;50.80926400;5.16316200;2022-12-29T09:38:20;11.10;99.90
19363;DHT22;9817;50.80926400;5.16316200;2022-12-29T09:40:54;11.30;99.90
19363;DHT22;9817;50.80926400;5.16316200;2022-12-29T09:48:50;11.30;99.90
19363;DHT22;9817;50.80926400;5.16316200;2022-12-29T09:51:22;11.20;99.90
19363;DHT22;9817;50.80926400;5.16316200;2022-12-29T09:56:52;11.30;99.90
19363;DHT22;9817;50.80926400;5.16316200;2022-12-29T09:59:21;11.40;99.90
19363;DHT22;9817;50.80926400;5.16316200;2022-12-29T10:02:04;11.30;99.90
19363;DHT22;9817;50.80926400;5.16316200;2022-12-29T10:04:30;11.30;99.90
19363;DHT22;9817;50.80926400;5.16316200;2022-12-29T10:07:33;11.50;99.90
19363;DHT22;9817;50.80926400;5.16316200;2022-12-29T10:12:40;11.50;99.90
19363;DHT22;9817;50.80926400;5.16316200;2022-12-29T10:17:52;11.50;99.90
19363;DHT22;9817;50.80926400;5.16316200;2022-12-29T10:20:36;11.60;99.90
19363;DHT22;9817;50.80926400;5.16316200;2022-12-29T10:25:47;11.50;99.90
19363;DHT22;9817;50.80926400;5.16316200;2022-12-29T10:28:22;11.50;99.90
19363;DHT22;9817;50.80926400;5.16316200;2022-12-29T10:30:49;11.60;99.90
19363;DHT22;9817;50.80926400;5.16316200;2022-12-29T10:33:23;11.60;99.90
19363;DHT22;9817;50.80926400;5.16316200;2022-12-29T10:35:50;11.70;99.90
19363;DHT22;9817;50.80926400;5.16316200;2022-12-29T10:38:26;11.80;99.90
19363;DHT22;9817;50.80926400;5.16316200;2022-12-29T10:41:13;11.90;99.90
19363;DHT22;9817;50.80926400;5.16316200;2022-12-29T10:44:08;12.10;99.90
19363;DHT22;9817;50.80926400;5.16316200;2022-12-29T10:46:37;12.20;99.90
19363;DHT22;9817;50.80926400;5.16316200;2022-12-29T10:49:04;12.30;99.90
19363;DHT22;9817;50.80926400;5.16316200;2022-12-29T10:51:37;12.50;99.90
19363;DHT22;9817;50.80926400;5.16316200;2022-12-29T10:57:00;12.60;99.90
19363;DHT22;9817;50.80926400;5.16316200;2022-12-29T10:59:28;12.50;99.90
19363;DHT22;9817;50.80926400;5.16316200;2022-12-29T11:04:46;12.40;99.90
19363;DHT22;9817;50.80926400;5.16316200;2022-12-29T11:07:17;12.40;99.90
19363;DHT22;9817;50.80926400;5.16316200;2022-12-29T11:09:44;12.20;99.90
19363;DHT22;9817;50.80926400;5.16316200;2022-12-29T11:12:28;12.40;99.90
19363;DHT22;9817;50.80926400;5.16316200;2022-12-29T11:15:20;12.70;99.90
19363;DHT22;9817;50.80926400;5.16316200;2022-12-29T11:20:31;12.80;99.90
19363;DHT22;9817;50.80926400;5.16316200;2022-12-29T11:22:58;12.90;99.90
19363;DHT22;9817;50.80926400;5.16316200;2022-12-29T11:25:24;12.90;99.90
19363;DHT22;9817;50.80926400;5.16316200;2022-12-29T11:30:24;13.00;99.90
19363;DHT22;9817;50.80926400;5.16316200;2022-12-29T11:32:52;12.90;99.90
19363;DHT22;9817;50.80926400;5.16316200;2022-12-29T11:35:36;12.80;99.90
19363;DHT22;9817;50.80926400;5.16316200;2022-12-29T11:38:02;12.70;99.90
19363;DHT22;9817;50.80926400;5.16316200;2022-12-29T11:40:29;12.60;99.90
19363;DHT22;9817;50.80926400;5.16316200;2022-12-29T11:43:02;12.60;99.90
19363;DHT22;9817;50.80926400;5.16316200;2022-12-29T11:45:34;12.50;99.90
19363;DHT22;9817;50.80926400;5.16316200;2022-12-29T11:48:08;12.50;99.90
19363;DHT22;9817;50.80926400;5.16316200;2022-12-29T11:50:39;12.40;99.90
19363;DHT22;9817;50.80926400;5.16316200;2022-12-29T11:53:13;12.40;99.90
19363;DHT22;9817;50.80926400;5.16316200;2022-12-29T11:55:53;12.40;99.90
19363;DHT22;9817;50.80926400;5.16316200;2022-12-29T11:58:20;12.40;99.90
19363;DHT22;9817;50.80926400;5.16316200;2022-12-29T12:00:46;12.30;99.90
19363;DHT22;9817;50.80926400;5.16316200;2022-12-29T12:03:23;12.30;99.90
19363;DHT22;9817;50.80926400;5.16316200;2022-12-29T12:06:01;12.40;99.90
19363;DHT22;9817;50.80926400;5.16316200;2022-12-29T12:11:25;12.40;99.90
19363;DHT22;9817;50.80926400;5.16316200;2022-12-29T12:16:24;12.40;99.90
19363;DHT22;9817;50.80926400;5.16316200;2022-12-29T12:18:57;12.40;99.90
19363;DHT22;9817;50.80926400;5.16316200;2022-12-29T12:22:26;12.30;99.90
19363;DHT22;9817;50.80926400;5.16316200;2022-12-29T12:24:31;12.40;99.90
19363;DHT22;9817;50.80926400;5.16316200;2022-12-29T12:27:04;12.50;99.90
19363;DHT22;9817;50.80926400;5.16316200;2022-12-29T12:36:07;12.50;99.90
19363;DHT22;9817;50.80926400;5.16316200;2022-12-29T12:38:46;12.50;99.90
19363;DHT22;9817;50.80926400;5.16316200;2022-12-29T12:44:06;12.50;99.90
19363;DHT22;9817;50.80926400;5.16316200;2022-12-29T12:49:41;12.30;99.90
19363;DHT22;9817;50.80926400;5.16316200;2022-12-29T12:52:26;12.30;99.90
19363;DHT22;9817;50.80926400;5.16316200;2022-12-29T13:00:16;12.50;99.90
19363;DHT22;9817;50.80926400;5.16316200;2022-12-29T13:05:42;12.40;99.90
19363;DHT22;9817;50.80926400;5.16316200;2022-12-29T13:10:42;12.30;99.90
19363;DHT22;9817;50.80926400;5.16316200;2022-12-29T13:19:14;12.30;99.90
19363;DHT22;9817;50.80926400;5.16316200;2022-12-29T13:27:48;12.20;99.90
19363;DHT22;9817;50.80926400;5.16316200;2022-12-29T13:30:21;12.20;99.90
19363;DHT22;9817;50.80926400;5.16316200;2022-12-29T13:32:59;12.10;99.90
19363;DHT22;9817;50.80926400;5.16316200;2022-12-29T13:38:19;12.00;99.90
19363;DHT22;9817;50.80926400;5.16316200;2022-12-29T13:40:52;12.10;99.90
19363;DHT22;9817;50.80926400;5.16316200;2022-12-29T13:43:21;12.10;99.90
19363;DHT22;9817;50.80926400;5.16316200;2022-12-29T13:45:59;12.20;99.90
19363;DHT22;9817;50.80926400;5.16316200;2022-12-29T13:48:40;12.10;99.90
19363;DHT22;9817;50.80926400;5.16316200;2022-12-29T13:51:09;12.00;99.90
19363;DHT22;9817;50.80926400;5.16316200;2022-12-29T13:53:47;12.00;99.90
19363;DHT22;9817;50.80926400;5.16316200;2022-12-29T13:59:21;12.20;99.90
19363;DHT22;9817;50.80926400;5.16316200;2022-12-29T14:02:00;12.40;99.90
19363;DHT22;9817;50.80926400;5.16316200;2022-12-29T14:04:28;12.40;99.90
19363;DHT22;9817;50.80926400;5.16316200;2022-12-29T14:07:04;12.40;99.90
19363;DHT22;9817;50.80926400;5.16316200;2022-12-29T14:09:46;12.50;99.90
19363;DHT22;9817;50.80926400;5.16316200;2022-12-29T14:14:45;12.40;99.90
19363;DHT22;9817;50.80926400;5.16316200;2022-12-29T14:17:11;12.50;99.90
19363;DHT22;9817;50.80926400;5.16316200;2022-12-29T14:19:41;12.50;99.90
19363;DHT22;9817;50.80926400;5.16316200;2022-12-29T14:22:08;12.40;99.90
19363;DHT22;9817;50.80926400;5.16316200;2022-12-29T14:34:51;12.10;99.90
19363;DHT22;9817;50.80926400;5.16316200;2022-12-29T14:37:30;12.30;99.90
19363;DHT22;9817;50.80926400;5.16316200;2022-12-29T14:42:32;12.20;99.90
19363;DHT22;9817;50.80926400;5.16316200;2022-12-29T14:45:28;12.10;99.90
19363;DHT22;9817;50.80926400;5.16316200;2022-12-29T14:47:55;11.90;99.90
19363;DHT22;9817;50.80926400;5.16316200;2022-12-29T14:50:25;11.80;99.90
19363;DHT22;9817;50.80926400;5.16316200;2022-12-29T14:52:59;11.60;99.90
19363;DHT22;9817;50.80926400;5.16316200;2022-12-29T14:55:44;11.60;99.90
19363;DHT22;9817;50.80926400;5.16316200;2022-12-29T14:58:30;11.70;99.90
19363;DHT22;9817;50.80926400;5.16316200;2022-12-29T15:00:57;11.50;99.90
19363;DHT22;9817;50.80926400;5.16316200;2022-12-29T15:03:53;11.50;99.90
19363;DHT22;9817;50.80926400;5.16316200;2022-12-29T15:06:18;11.40;99.90
19363;DHT22;9817;50.80926400;5.16316200;2022-12-29T15:09:09;11.30;99.90
19363;DHT22;9817;50.80926400;5.16316200;2022-12-29T15:14:02;11.20;99.90
19363;DHT22;9817;50.80926400;5.16316200;2022-12-29T15:16:31;11.10;99.90
19363;DHT22;9817;50.80926400;5.16316200;2022-12-29T15:18:58;11.10;99.90
19363;DHT22;9817;50.80926400;5.16316200;2022-12-29T15:21:30;11.10;99.90
19363;DHT22;9817;50.80926400;5.16316200;2022-12-29T15:23:56;11.20;99.90
19363;DHT22;9817;50.80926400;5.16316200;2022-12-29T15:26:22;11.10;99.90
19363;DHT22;9817;50.80926400;5.16316200;2022-12-29T15:28:50;10.80;99.90
19363;DHT22;9817;50.80926400;5.16316200;2022-12-29T15:31:24;10.60;99.90
19363;DHT22;9817;50.80926400;5.16316200;2022-12-29T15:33:52;10.50;99.90
19363;DHT22;9817;50.80926400;5.16316200;2022-12-29T15:36:24;10.40;99.90
19363;DHT22;9817;50.80926400;5.16316200;2022-12-29T15:38:51;10.40;99.90
19363;DHT22;9817;50.80926400;5.16316200;2022-12-29T15:41:35;10.20;99.90
19363;DHT22;9817;50.80926400;5.16316200;2022-12-29T15:44:24;10.20;99.90
19363;DHT22;9817;50.80926400;5.16316200;2022-12-29T15:46:51;10.30;99.90
19363;DHT22;9817;50.80926400;5.16316200;2022-12-29T15:49:17;10.30;99.90
19363;DHT22;9817;50.80926400;5.16316200;2022-12-29T15:51:44;10.10;99.90
19363;DHT22;9817;50.80926400;5.16316200;2022-12-29T15:54:16;10.00;99.90
19363;DHT22;9817;50.80926400;5.16316200;2022-12-29T15:56:42;10.00;99.90
19363;DHT22;9817;50.80926400;5.16316200;2022-12-29T15:59:24;10.00;99.90